Time;durP1;ratioP1;P1;durP2;ratioP2;P2;SDS_P1;SDS_P2;PMS_P1;PMS_P2;Temp;Humidity;BMP_temperature;BMP_pressure;BME280_temperature;BME280_humidity;BME280_pressure;Samples;Min_cycle;Max_cycle;Signal;HPM_P1;HPM_P2
2022/09/30 00:00:13;;;;;;;8.13;4.28;;;8.10;99.90;;;;;;5046255;28;20048;-77
2022/09/30 00:02:39;;;;;;;4.65;3.70;;;8.00;99.90;;;;;;5045754;28;20171;-77
2022/09/30 00:05:06;;;;;;;5.80;4.20;;;8.00;99.90;;;;;;5045016;28;20075;-79
2022/09/30 00:07:32;;;;;;;5.43;3.95;;;8.00;99.90;;;;;;5049645;28;20402;-79
2022/09/30 00:09:57;;;;;;;7.72;4.35;;;7.90;99.90;;;;;;5054011;28;20036;-78
2022/09/30 00:12:24;;;;;;;4.40;3.83;;;7.80;99.90;;;;;;5049423;28;20094;-77
2022/09/30 00:14:50;;;;;;;6.63;4.07;;;7.80;99.90;;;;;;5036374;28;20040;-78
2022/09/30 00:17:16;;;;;;;10.07;4.90;;;7.80;99.90;;;;;;5039555;28;20123;-76
2022/09/30 00:19:42;;;;;;;10.32;4.15;;;7.80;99.90;;;;;;5048523;28;20494;-77
2022/09/30 00:22:08;;;;;;;4.78;4.22;;;7.70;99.90;;;;;;5070860;28;20044;-76
2022/09/30 00:24:33;;;;;;;143.43;7.22;;;7.70;99.90;;;;;;5052508;28;20127;-77
2022/09/30 00:26:59;;;;;;;26.02;5.65;;;7.70;99.90;;;;;;5071448;28;20099;-77
2022/09/30 00:29:25;;;;;;;9.52;5.50;;;7.70;99.90;;;;;;5078147;28;20052;-75
2022/09/30 00:31:50;;;;;;;6.72;5.47;;;7.80;99.90;;;;;;5071177;28;20497;-75
2022/09/30 00:34:16;;;;;;;6.53;5.10;;;7.80;99.90;;;;;;5053810;28;20039;-78
2022/09/30 00:36:47;;;;;;;7.97;5.57;;;7.70;99.90;;;;;;5068082;28;20044;-79
2022/09/30 00:39:25;;;;;;;9.15;6.15;;;7.80;99.90;;;;;;5052197;28;20036;-77
2022/09/30 00:41:56;;;;;;;7.78;5.05;;;7.70;99.90;;;;;;5070215;28;20040;-78
2022/09/30 00:45:00;;;;;;;8.60;4.80;;;7.60;99.90;;;;;;5071030;28;20050;-77
2022/09/30 00:47:27;;;;;;;6.00;4.82;;;7.60;99.90;;;;;;4970239;28;20098;-77
2022/09/30 00:49:57;;;;;;;6.30;4.65;;;7.70;99.90;;;;;;4953860;28;20526;-77
2022/09/30 00:52:23;;;;;;;6.50;4.45;;;7.70;99.90;;;;;;4937736;28;20073;-79
2022/09/30 00:54:50;;;;;;;7.30;4.40;;;7.60;99.90;;;;;;4953843;28;20051;-76
2022/09/30 00:57:16;;;;;;;9.65;4.53;;;7.60;99.90;;;;;;4951886;28;20079;-77
2022/09/30 00:59:49;;;;;;;6.78;4.60;;;7.50;99.90;;;;;;4951205;28;20125;-78
2022/09/30 01:02:15;;;;;;;7.00;4.60;;;7.60;99.90;;;;;;4950427;28;20055;-79
2022/09/30 01:04:42;;;;;;;5.60;4.40;;;7.50;99.90;;;;;;4936906;28;20030;-76
2022/09/30 01:07:08;;;;;;;5.15;4.65;;;7.50;99.90;;;;;;4953368;28;20031;-77
2022/09/30 01:09:39;;;;;;;5.07;4.45;;;7.50;99.90;;;;;;4937193;28;20057;-77
2022/09/30 01:12:20;;;;;;;6.88;4.40;;;7.40;99.90;;;;;;4934569;28;20495;-79
2022/09/30 01:14:52;;;;;;;5.53;4.30;;;7.60;99.90;;;;;;4953340;28;20057;-79
2022/09/30 01:17:52;;;;;;;6.50;4.28;;;7.50;99.90;;;;;;4968863;28;20102;-79
2022/09/30 01:20:41;;;;;;;6.32;4.40;;;7.50;99.90;;;;;;4902282;28;20067;-78
2022/09/30 01:23:29;;;;;;;4.53;4.13;;;7.50;99.90;;;;;;5006727;28;20045;-78
2022/09/30 01:26:53;;;;;;;6.15;4.60;;;7.50;99.90;;;;;;5005631;28;20097;-77
2022/09/30 01:29:52;;;;;;;5.50;4.80;;;7.50;99.90;;;;;;4934739;29;20039;-80
2022/09/30 01:32:18;;;;;;;10.55;5.22;;;7.50;99.90;;;;;;4953336;28;20042;-79
2022/09/30 01:35:14;;;;;;;5.55;5.05;;;7.60;99.90;;;;;;4952459;28;20559;-77
2022/09/30 01:38:00;;;;;;;6.80;5.97;;;7.60;99.90;;;;;;4968302;28;20042;-78
2022/09/30 01:40:38;;;;;;;7.13;5.40;;;7.60;99.90;;;;;;4951349;28;20143;-79
2022/09/30 01:43:21;;;;;;;8.52;6.05;;;7.60;99.90;;;;;;4949682;28;20115;-77
2022/09/30 01:45:57;;;;;;;5.97;4.85;;;7.60;99.90;;;;;;4970141;28;20054;-77
2022/09/30 01:48:48;;;;;;;7.38;5.25;;;7.50;99.90;;;;;;4936552;28;20568;-79
2022/09/30 01:51:39;;;;;;;9.20;5.38;;;7.50;99.90;;;;;;4952471;28;20053;-78
2022/09/30 01:54:14;;;;;;;13.40;5.93;;;7.50;99.90;;;;;;4912742;29;20107;-77
2022/09/30 01:56:50;;;;;;;36.63;5.28;;;7.40;99.90;;;;;;4915669;29;20059;-78
2022/09/30 01:59:22;;;;;;;31.63;5.43;;;7.40;99.90;;;;;;4915511;29;20372;-77
2022/09/30 02:01:59;;;;;;;16.88;5.25;;;7.40;99.90;;;;;;4931201;28;20471;-78
2022/09/30 02:04:32;;;;;;;49.60;5.53;;;7.30;99.90;;;;;;5019809;28;20072;-78
2022/09/30 02:07:04;;;;;;;38.40;5.25;;;7.30;99.90;;;;;;4989714;28;20524;-79
2022/09/30 02:09:47;;;;;;;43.67;5.35;;;7.30;99.90;;;;;;4971134;28;20034;-78
2022/09/30 02:12:18;;;;;;;186.00;7.60;;;7.20;99.90;;;;;;4968407;28;20077;-79
2022/09/30 02:14:48;;;;;;;96.72;6.53;;;7.10;99.90;;;;;;4986356;28;20061;-78
2022/09/30 02:17:32;;;;;;;71.93;6.53;;;7.00;99.90;;;;;;4979840;28;20050;-79
2022/09/30 02:20:04;;;;;;;13.07;4.28;;;7.20;99.90;;;;;;4986964;28;20141;-79
2022/09/30 02:22:44;;;;;;;80.97;5.50;;;7.20;99.90;;;;;;4986682;28;20057;-80
2022/09/30 02:25:19;;;;;;;76.97;5.15;;;7.00;99.90;;;;;;4990206;28;20084;-79
2022/09/30 02:27:58;;;;;;;72.03;5.63;;;7.10;99.90;;;;;;4985599;28;21529;-79
2022/09/30 02:30:24;;;;;;;9.15;4.38;;;6.90;99.90;;;;;;4991452;28;20048;-78
2022/09/30 02:32:57;;;;;;;17.85;4.53;;;6.90;99.90;;;;;;5069348;28;20048;-79
2022/09/30 02:35:34;;;;;;;42.88;4.78;;;6.90;99.90;;;;;;5068262;28;20487;-77
2022/09/30 02:38:17;;;;;;;56.90;4.97;;;6.90;99.90;;;;;;5049729;28;20036;-78
2022/09/30 02:40:54;;;;;;;11.43;4.15;;;6.90;99.90;;;;;;5069955;28;20427;-78
2022/09/30 02:43:20;;;;;;;7.85;4.03;;;6.90;99.90;;;;;;5052442;28;20044;-78
2022/09/30 02:46:04;;;;;;;42.70;5.10;;;6.90;99.90;;;;;;5068111;28;20062;-80
2022/09/30 02:48:43;;;;;;;24.95;3.92;;;6.80;99.90;;;;;;5052333;28;20128;-75
2022/09/30 02:51:20;;;;;;;38.35;4.40;;;6.70;99.90;;;;;;5051234;28;20043;-78
2022/09/30 02:54:01;;;;;;;31.70;3.80;;;6.80;99.90;;;;;;5052868;28;20052;-77
2022/09/30 02:56:44;;;;;;;8.63;4.43;;;6.80;99.90;;;;;;5066913;28;20035;-77
2022/09/30 02:59:10;;;;;;;65.68;5.38;;;6.70;99.90;;;;;;5066656;28;20055;-78
2022/09/30 03:01:40;;;;;;;88.90;5.43;;;6.70;99.90;;;;;;5069506;28;20036;-79
2022/09/30 03:04:08;;;;;;;26.55;4.38;;;6.70;99.90;;;;;;5067900;28;20036;-78
2022/09/30 03:06:36;;;;;;;24.85;5.03;;;6.70;99.90;;;;;;5051255;28;20040;-78
2022/09/30 03:09:02;;;;;;;40.17;4.82;;;6.70;99.90;;;;;;5044963;28;20040;-79
2022/09/30 03:11:28;;;;;;;120.45;5.82;;;6.70;99.90;;;;;;5069950;28;20067;-77
2022/09/30 03:14:37;;;;;;;66.28;4.80;;;6.70;99.90;;;;;;5049029;28;20048;-77
2022/09/30 03:17:28;;;;;;;70.55;4.40;;;6.70;99.90;;;;;;5065314;28;20392;-77
2022/09/30 03:20:08;;;;;;;16.73;4.10;;;6.60;99.90;;;;;;5054944;28;20147;-78
2022/09/30 03:23:06;;;;;;;21.55;3.88;;;6.60;99.90;;;;;;5068888;28;20048;-79
2022/09/30 03:25:44;;;;;;;5.82;3.70;;;6.50;99.90;;;;;;5045906;28;20128;-77
2022/09/30 03:28:09;;;;;;;4.03;3.72;;;6.60;99.90;;;;;;5065638;28;20482;-76
2022/09/30 03:30:49;;;;;;;11.38;3.67;;;6.50;99.90;;;;;;5049407;28;20035;-77
2022/09/30 03:33:40;;;;;;;5.65;3.60;;;6.50;99.90;;;;;;5067058;28;20040;-79
2022/09/30 03:36:33;;;;;;;18.90;3.60;;;6.50;99.90;;;;;;5064976;28;20040;-77
2022/09/30 03:39:02;;;;;;;11.90;4.03;;;6.40;99.90;;;;;;5069680;28;20110;-78
2022/09/30 03:41:40;;;;;;;5.82;3.80;;;6.40;99.90;;;;;;5064871;28;20044;-76
2022/09/30 03:44:28;;;;;;;9.82;4.30;;;6.40;99.90;;;;;;5050981;28;20804;-78
2022/09/30 03:47:00;;;;;;;3.70;3.40;;;6.40;99.90;;;;;;5052277;28;20042;-76
2022/09/30 03:49:40;;;;;;;5.85;3.72;;;6.40;99.90;;;;;;5067863;28;20070;-77
2022/09/30 03:52:12;;;;;;;3.97;3.60;;;6.40;99.90;;;;;;5069074;28;20040;-76
2022/09/30 03:54:51;;;;;;;4.90;3.78;;;6.40;99.90;;;;;;5066692;28;20093;-77
2022/09/30 03:57:17;;;;;;;5.25;3.45;;;6.50;99.90;;;;;;5064821;28;20047;-77
2022/09/30 03:59:43;;;;;;;7.47;3.13;;;6.30;99.90;;;;;;5051595;28;20040;-76
2022/09/30 04:02:12;;;;;;;4.63;3.60;;;6.30;99.90;;;;;;5068085;28;20120;-79
2022/09/30 04:04:39;;;;;;;3.65;3.35;;;6.30;99.90;;;;;;5068725;28;20035;-79
2022/09/30 04:07:05;;;;;;;4.90;4.00;;;6.20;99.90;;;;;;5069619;28;20036;-76
2022/09/30 04:09:31;;;;;;;5.10;3.63;;;6.30;99.90;;;;;;5069134;28;20032;-77
2022/09/30 04:11:57;;;;;;;5.80;3.90;;;6.30;99.90;;;;;;5067352;28;20445;-77
2022/09/30 04:14:22;;;;;;;4.43;4.03;;;6.20;99.90;;;;;;5066348;28;20297;-76
2022/09/30 04:16:48;;;;;;;8.15;3.63;;;6.30;99.90;;;;;;5091600;28;20370;-76
2022/09/30 04:19:14;;;;;;;5.70;3.92;;;6.20;99.90;;;;;;5071875;28;20048;-78
2022/09/30 04:21:39;;;;;;;3.95;3.55;;;6.10;99.90;;;;;;5068388;28;20041;-76
2022/09/30 04:24:05;;;;;;;3.80;3.30;;;6.10;99.90;;;;;;5033281;28;20045;-77
2022/09/30 04:26:31;;;;;;;4.18;3.78;;;6.00;99.90;;;;;;5060961;28;20166;-76
2022/09/30 04:28:57;;;;;;;7.30;4.07;;;6.00;99.90;;;;;;5086331;28;20041;-76
2022/09/30 04:31:23;;;;;;;4.15;3.75;;;6.00;99.90;;;;;;5049748;28;20093;-78
2022/09/30 04:33:49;;;;;;;3.75;3.45;;;6.00;99.90;;;;;;5049142;28;20044;-78
2022/09/30 04:36:16;;;;;;;4.30;3.90;;;6.10;99.90;;;;;;5063082;28;20197;-77
2022/09/30 04:38:42;;;;;;;4.40;4.00;;;6.00;99.90;;;;;;5067156;28;20040;-76
2022/09/30 04:41:15;;;;;;;4.53;4.05;;;5.90;99.90;;;;;;5047656;28;20495;-77
2022/09/30 04:44:04;;;;;;;4.43;4.03;;;6.00;99.90;;;;;;5053023;28;20109;-78
2022/09/30 04:46:31;;;;;;;5.20;4.45;;;5.90;99.90;;;;;;5062860;28;20069;-77
2022/09/30 04:49:00;;;;;;;4.25;3.85;;;5.90;99.90;;;;;;5068007;28;20028;-77
2022/09/30 04:51:26;;;;;;;4.22;3.83;;;5.90;99.90;;;;;;5050276;28;21012;-76
2022/09/30 04:53:51;;;;;;;5.00;4.60;;;5.80;99.90;;;;;;5048772;28;20484;-78
2022/09/30 04:56:18;;;;;;;4.75;4.25;;;5.80;99.90;;;;;;5066843;28;20076;-77
2022/09/30 04:58:44;;;;;;;4.15;3.75;;;5.80;99.90;;;;;;5066530;28;20036;-76
2022/09/30 05:01:12;;;;;;;4.68;4.28;;;5.80;99.90;;;;;;5052179;28;20047;-76
2022/09/30 05:03:38;;;;;;;6.63;4.40;;;5.70;99.90;;;;;;5050737;28;20119;-77
2022/09/30 05:06:05;;;;;;;5.72;4.85;;;5.80;99.90;;;;;;5068397;28;20120;-77
2022/09/30 05:08:32;;;;;;;11.55;5.75;;;5.70;99.90;;;;;;5063864;28;20032;-77
2022/09/30 05:11:09;;;;;;;8.50;5.05;;;5.80;99.90;;;;;;5065431;28;20040;-78
2022/09/30 05:13:39;;;;;;;7.20;5.20;;;5.80;99.90;;;;;;5067400;28;20048;-77
2022/09/30 05:16:07;;;;;;;8.82;4.55;;;5.80;99.90;;;;;;5069452;28;20048;-78
2022/09/30 05:18:33;;;;;;;6.20;4.85;;;5.80;99.90;;;;;;5073050;28;20044;-77
2022/09/30 05:21:00;;;;;;;5.97;5.13;;;5.70;99.90;;;;;;5076466;28;20056;-76
2022/09/30 05:23:27;;;;;;;5.25;4.75;;;5.70;99.90;;;;;;5069616;28;20061;-77
2022/09/30 05:25:55;;;;;;;6.63;5.05;;;5.70;99.90;;;;;;5074851;28;20051;-76
2022/09/30 05:28:20;;;;;;;5.88;4.60;;;5.70;99.90;;;;;;5087387;28;20058;-76
2022/09/30 05:30:48;;;;;;;7.97;4.68;;;5.70;99.90;;;;;;5072024;28;20435;-78
2022/09/30 05:33:14;;;;;;;6.13;4.43;;;5.70;99.90;;;;;;5055775;28;20032;-80
2022/09/30 05:35:42;;;;;;;5.43;4.60;;;5.70;99.90;;;;;;5054676;28;20055;-79
2022/09/30 05:38:09;;;;;;;4.65;4.15;;;5.70;99.90;;;;;;5071258;28;20093;-79
2022/09/30 05:40:39;;;;;;;4.72;4.20;;;5.60;99.90;;;;;;5056472;28;20446;-76
2022/09/30 05:43:06;;;;;;;4.97;4.47;;;5.60;99.90;;;;;;5052993;28;20055;-81
2022/09/30 05:45:32;;;;;;;4.65;4.25;;;5.70;99.90;;;;;;5053973;28;20048;-79
2022/09/30 05:47:58;;;;;;;6.45;4.50;;;5.60;99.90;;;;;;5045873;28;20503;-80
2022/09/30 05:50:24;;;;;;;8.77;4.32;;;5.60;99.90;;;;;;5068953;28;20036;-77
2022/09/30 05:52:51;;;;;;;7.00;4.57;;;5.60;99.90;;;;;;5077109;28;20059;-78
2022/09/30 05:55:19;;;;;;;5.40;4.75;;;5.60;99.90;;;;;;5062818;28;20043;-78
2022/09/30 05:57:48;;;;;;;7.70;6.30;;;5.60;99.90;;;;;;5054873;28;20347;-80
2022/09/30 06:00:14;;;;;;;10.15;7.30;;;5.70;99.90;;;;;;5066723;28;20092;-77
2022/09/30 06:02:40;;;;;;;10.40;7.90;;;5.80;99.90;;;;;;5066452;28;20047;-78
2022/09/30 06:05:07;;;;;;;10.63;7.55;;;5.90;99.90;;;;;;5053192;28;20075;-78
2022/09/30 06:07:34;;;;;;;8.57;7.03;;;5.90;99.90;;;;;;5034134;28;20047;-77
2022/09/30 06:10:01;;;;;;;11.63;6.90;;;5.90;99.90;;;;;;5051449;28;20102;-78
2022/09/30 06:12:27;;;;;;;9.90;6.93;;;6.10;99.90;;;;;;5083282;28;20040;-77
2022/09/30 06:14:54;;;;;;;10.02;7.35;;;6.10;99.90;;;;;;5066990;28;20780;-77
2022/09/30 06:17:21;;;;;;;11.18;7.68;;;6.10;99.90;;;;;;5065216;28;20449;-75
2022/09/30 06:19:48;;;;;;;13.57;8.13;;;6.20;99.90;;;;;;5066472;28;21999;-77
2022/09/30 06:22:15;;;;;;;10.68;7.20;;;6.20;99.90;;;;;;5081422;28;20182;-77
2022/09/30 06:24:41;;;;;;;9.65;7.57;;;6.20;99.90;;;;;;5043485;28;20063;-79
2022/09/30 06:27:07;;;;;;;12.18;7.38;;;6.20;99.90;;;;;;5042559;28;20127;-77
2022/09/30 06:29:32;;;;;;;8.98;6.93;;;6.30;99.90;;;;;;5076622;28;20097;-79
2022/09/30 06:31:58;;;;;;;10.88;6.63;;;6.30;99.90;;;;;;5042580;28;20427;-77
2022/09/30 06:34:24;;;;;;;10.57;6.93;;;6.40;99.90;;;;;;5064009;28;20048;-78
2022/09/30 06:36:50;;;;;;;7.95;6.28;;;6.40;99.90;;;;;;5045118;28;20116;-79
2022/09/30 06:39:15;;;;;;;9.73;6.38;;;6.40;99.90;;;;;;5044472;28;22414;-82
2022/09/30 06:41:42;;;;;;;8.20;6.50;;;6.40;99.90;;;;;;5043877;28;20351;-81
2022/09/30 06:44:09;;;;;;;8.35;6.80;;;6.60;99.90;;;;;;5041774;28;20048;-81
2022/09/30 06:46:35;;;;;;;7.35;6.30;;;6.60;99.90;;;;;;5060043;28;20087;-81
2022/09/30 06:49:01;;;;;;;9.43;6.63;;;6.60;99.90;;;;;;5064370;28;20084;-80
2022/09/30 06:51:35;;;;;;;9.23;6.38;;;6.70;99.90;;;;;;5082678;28;20115;-79
2022/09/30 06:54:01;;;;;;;9.75;6.47;;;6.70;99.90;;;;;;5043812;28;20075;-81
2022/09/30 06:56:27;;;;;;;11.23;6.40;;;6.80;99.90;;;;;;5058433;28;20459;-77
2022/09/30 06:58:57;;;;;;;8.02;6.10;;;6.80;99.90;;;;;;5046067;28;20074;-81
2022/09/30 07:01:23;;;;;;;7.07;5.65;;;6.90;99.90;;;;;;5046950;28;20059;-79
2022/09/30 07:03:54;;;;;;;9.95;6.05;;;7.00;99.90;;;;;;5041525;28;20146;-78
2022/09/30 07:06:20;;;;;;;6.82;5.85;;;7.00;99.90;;;;;;5044503;28;20470;-80
2022/09/30 07:08:47;;;;;;;8.13;5.75;;;7.10;99.90;;;;;;5052376;28;20123;-79
2022/09/30 07:11:15;;;;;;;8.50;5.93;;;7.10;99.90;;;;;;5066830;28;20048;-81
2022/09/30 07:14:03;;;;;;;6.65;5.85;;;7.10;99.90;;;;;;5045156;28;20101;-81
2022/09/30 07:16:30;;;;;;;6.80;6.07;;;7.30;99.90;;;;;;5053993;28;20482;-78
2022/09/30 07:19:01;;;;;;;7.97;5.95;;;7.30;99.90;;;;;;5050722;28;20049;-80
2022/09/30 07:21:26;;;;;;;8.05;6.50;;;7.40;99.90;;;;;;5036887;28;20056;-78
2022/09/30 07:23:53;;;;;;;7.32;6.03;;;7.50;99.90;;;;;;5023266;28;20139;-84
2022/09/30 07:26:21;;;;;;;10.15;6.25;;;7.50;99.90;;;;;;5036691;28;20055;-78
2022/09/30 07:28:48;;;;;;;6.88;6.10;;;7.60;99.90;;;;;;5046101;28;20045;-81
2022/09/30 07:31:16;;;;;;;8.45;6.97;;;7.70;99.90;;;;;;5047637;28;20113;-78
2022/09/30 07:33:43;;;;;;;6.97;6.10;;;7.70;99.90;;;;;;5049697;28;20536;-80
2022/09/30 07:36:10;;;;;;;8.52;6.38;;;7.80;99.90;;;;;;5031059;28;20048;-78
2022/09/30 07:38:39;;;;;;;8.90;6.72;;;8.00;99.90;;;;;;5044733;28;20037;-78
2022/09/30 07:41:07;;;;;;;9.27;7.05;;;8.00;99.90;;;;;;5027554;28;20367;-78
2022/09/30 07:43:39;;;;;;;9.63;7.03;;;8.00;99.90;;;;;;5052005;28;20105;-79
2022/09/30 07:46:12;;;;;;;11.95;7.45;;;8.10;99.90;;;;;;5048796;28;20033;-79
2022/09/30 07:48:46;;;;;;;13.45;8.23;;;8.20;99.90;;;;;;5049920;28;20111;-77
2022/09/30 07:51:16;;;;;;;13.05;7.70;;;8.30;99.90;;;;;;5022680;28;20040;-80
2022/09/30 07:53:44;;;;;;;13.50;8.50;;;8.40;99.90;;;;;;5052290;28;20387;-79
2022/09/30 07:56:10;;;;;;;10.40;7.55;;;8.40;99.90;;;;;;5048851;28;20041;-80
2022/09/30 07:58:37;;;;;;;9.73;7.13;;;8.50;99.90;;;;;;5036449;28;20128;-79
2022/09/30 08:01:05;;;;;;;11.00;8.43;;;8.60;99.90;;;;;;5040035;28;20094;-77
2022/09/30 08:03:43;;;;;;;10.07;8.27;;;8.70;99.90;;;;;;5040499;28;20032;-78
2022/09/30 08:06:20;;;;;;;12.63;8.45;;;8.80;99.90;;;;;;5039969;28;20123;-82
2022/09/30 08:08:46;;;;;;;10.07;8.07;;;9.00;99.90;;;;;;5041906;28;20119;-79
2022/09/30 08:11:13;;;;;;;10.68;8.27;;;9.00;99.90;;;;;;5053186;28;20428;-81
2022/09/30 08:13:39;;;;;;;11.57;7.70;;;9.00;99.90;;;;;;5058995;28;20052;-80
2022/09/30 08:16:05;;;;;;;9.65;7.80;;;9.00;99.90;;;;;;5059234;28;20052;-78
2022/09/30 08:18:31;;;;;;;11.90;8.13;;;9.20;99.90;;;;;;5067017;28;20059;-77
2022/09/30 08:21:01;;;;;;;12.88;8.02;;;9.20;99.90;;;;;;5062107;28;20059;-79
2022/09/30 08:23:28;;;;;;;10.05;7.97;;;9.20;99.90;;;;;;5058119;28;20113;-78
2022/09/30 08:26:00;;;;;;;12.48;8.73;;;9.40;99.90;;;;;;5059785;28;20032;-82
2022/09/30 08:28:26;;;;;;;12.68;8.43;;;9.50;99.90;;;;;;5088704;28;20496;-83
2022/09/30 08:30:51;;;;;;;11.68;8.90;;;9.60;99.90;;;;;;5078157;28;20046;-81
2022/09/30 08:33:17;;;;;;;12.85;8.27;;;9.60;99.90;;;;;;5073069;28;20046;-78
2022/09/30 08:35:42;;;;;;;13.77;9.73;;;9.70;99.90;;;;;;5076415;28;20324;-81
2022/09/30 08:38:08;;;;;;;14.40;9.02;;;9.80;99.90;;;;;;5075431;28;20094;-79
2022/09/30 08:40:51;;;;;;;11.70;8.95;;;9.90;99.90;;;;;;5076356;28;20036;-81
2022/09/30 08:43:37;;;;;;;12.27;8.30;;;9.90;99.90;;;;;;5049189;28;20333;-80
2022/09/30 08:46:13;;;;;;;13.38;8.95;;;10.10;99.90;;;;;;5061209;28;20115;-81
2022/09/30 08:49:10;;;;;;;13.00;9.90;;;10.30;99.90;;;;;;5059080;28;20059;-83
2022/09/30 08:51:41;;;;;;;13.95;9.57;;;10.30;99.90;;;;;;4994785;28;20092;-78
2022/09/30 08:54:14;;;;;;;16.17;10.65;;;10.40;99.90;;;;;;4968306;28;20145;-79
2022/09/30 08:56:43;;;;;;;12.13;7.80;;;10.50;99.90;;;;;;4974930;28;20176;-81
2022/09/30 08:59:32;;;;;;;12.57;8.77;;;10.60;99.90;;;;;;4975931;28;20054;-79
2022/09/30 09:02:20;;;;;;;15.55;9.40;;;10.70;99.90;;;;;;4979923;28;20461;-79
2022/09/30 09:04:46;;;;;;;17.73;9.48;;;10.80;99.90;;;;;;4984580;28;20181;-79
2022/09/30 09:07:36;;;;;;;15.27;10.10;;;11.00;99.90;;;;;;4971973;28;20053;-79
2022/09/30 09:10:21;;;;;;;15.57;9.98;;;11.10;99.90;;;;;;4972553;28;20049;-80
2022/09/30 09:12:55;;;;;;;17.15;10.32;;;11.20;99.90;;;;;;4959384;28;20045;-81
2022/09/30 09:15:44;;;;;;;19.85;10.57;;;11.20;99.90;;;;;;4990904;28;20624;-80
2022/09/30 09:18:21;;;;;;;15.32;9.23;;;11.20;99.90;;;;;;4975539;28;20113;-81
2022/09/30 09:21:08;;;;;;;19.33;9.88;;;11.30;99.90;;;;;;4986757;28;20126;-82
2022/09/30 09:23:35;;;;;;;12.40;8.35;;;11.40;99.90;;;;;;4957307;28;20038;-78
2022/09/30 09:26:03;;;;;;;14.40;9.27;;;11.40;99.90;;;;;;4958172;28;20043;-77
2022/09/30 09:28:32;;;;;;;12.38;8.45;;;11.40;99.90;;;;;;5051165;28;20032;-77
2022/09/30 09:30:59;;;;;;;11.65;7.50;;;11.40;99.90;;;;;;5065533;28;20137;-82
2022/09/30 09:33:30;;;;;;;15.95;9.45;;;11.40;99.90;;;;;;5071802;28;20049;-82
2022/09/30 09:35:59;;;;;;;15.27;9.38;;;11.50;99.90;;;;;;5037135;28;20350;-79
2022/09/30 09:39:02;;;;;;;12.98;8.23;;;11.60;99.90;;;;;;5031868;28;20040;-78
2022/09/30 09:41:50;;;;;;;13.27;8.95;;;11.70;99.90;;;;;;5084387;28;20105;-77
2022/09/30 09:45:03;;;;;;;11.93;7.38;;;11.80;99.90;;;;;;5062293;28;20033;-76
2022/09/30 09:47:28;;;;;;;9.77;7.47;;;11.90;99.90;;;;;;5041720;28;20036;-79
2022/09/30 09:49:59;;;;;;;10.48;7.13;;;11.90;99.90;;;;;;5039286;28;20398;-79
2022/09/30 09:52:43;;;;;;;12.00;6.80;;;11.90;99.90;;;;;;5071747;28;20041;-79
2022/09/30 09:55:10;;;;;;;10.25;7.25;;;11.90;99.90;;;;;;5028990;28;20076;-78
2022/09/30 09:57:38;;;;;;;9.75;7.20;;;12.00;99.90;;;;;;5035428;28;20040;-81
2022/09/30 10:03:18;;;;;;;8.35;5.28;;;12.10;99.90;;;;;;5037242;28;20128;-82
2022/09/30 10:05:46;;;;;;;6.68;4.93;;;12.10;99.90;;;;;;5051178;28;20061;-79
2022/09/30 10:08:19;;;;;;;4.55;4.07;;;12.20;99.90;;;;;;5049129;28;20067;-81
2022/09/30 10:10:47;;;;;;;4.22;3.80;;;12.30;99.90;;;;;;5074217;28;20036;-80
2022/09/30 10:13:40;;;;;;;4.10;3.70;;;12.20;99.90;;;;;;5071586;28;20131;-83
2022/09/30 10:16:27;;;;;;;7.70;4.95;;;12.40;99.90;;;;;;5047638;28;20344;-80
2022/09/30 10:18:53;;;;;;;5.25;4.35;;;12.40;99.90;;;;;;5047168;28;20064;-82
2022/09/30 10:21:23;;;;;;;5.28;4.78;;;12.60;99.90;;;;;;5074060;28;20050;-79
2022/09/30 10:23:49;;;;;;;5.50;4.10;;;12.70;99.90;;;;;;5067313;28;20458;-82
2022/09/30 10:26:24;;;;;;;5.20;4.15;;;12.70;99.90;;;;;;5056998;28;20036;-78
2022/09/30 10:28:53;;;;;;;6.07;4.47;;;12.80;99.90;;;;;;5064614;28;20044;-79
2022/09/30 10:31:40;;;;;;;5.80;4.90;;;12.90;99.90;;;;;;5065169;28;20048;-80
2022/09/30 10:34:29;;;;;;;6.85;5.45;;;13.00;99.90;;;;;;5047126;28;20122;-81
2022/09/30 10:36:57;;;;;;;6.40;5.45;;;13.10;99.90;;;;;;4977131;28;20050;-81
2022/09/30 10:39:30;;;;;;;9.13;5.05;;;13.30;99.90;;;;;;4970140;28;20181;-78
2022/09/30 10:42:01;;;;;;;7.38;4.88;;;13.30;99.90;;;;;;4969257;28;20125;-79
2022/09/30 10:44:28;;;;;;;7.07;5.80;;;13.40;99.90;;;;;;4968576;28;20069;-82
2022/09/30 10:47:01;;;;;;;9.13;5.82;;;13.50;99.90;;;;;;4966491;28;20786;-79
2022/09/30 10:49:44;;;;;;;7.43;4.97;;;13.70;99.90;;;;;;4966555;28;20038;-81
2022/09/30 10:52:54;;;;;;;6.50;4.80;;;13.80;99.90;;;;;;4966044;28;20038;-76
2022/09/30 10:55:20;;;;;;;6.85;4.32;;;13.90;99.90;;;;;;4919067;28;20466;-77
2022/09/30 10:57:47;;;;;;;6.57;3.10;;;14.00;99.90;;;;;;4929957;28;20163;-82
2022/09/30 11:00:16;;;;;;;3.05;2.60;;;14.10;99.90;;;;;;4927415;28;20047;-76
2022/09/30 11:03:01;;;;;;;3.92;2.60;;;14.20;99.90;;;;;;4914572;28;20047;-80
2022/09/30 11:05:30;;;;;;;4.05;2.58;;;14.30;99.90;;;;;;4928535;28;20613;-81
2022/09/30 11:08:09;;;;;;;6.13;2.30;;;14.40;99.90;;;;;;4929683;28;20429;-82
2022/09/30 11:10:40;;;;;;;4.68;2.08;;;14.30;99.90;;;;;;4939443;28;20400;-81
2022/09/30 11:13:09;;;;;;;3.47;2.10;;;14.30;99.90;;;;;;4932856;28;20066;-82
2022/09/30 11:16:00;;;;;;;2.28;1.80;;;14.50;99.90;;;;;;5006605;28;20076;-80
2022/09/30 11:18:51;;;;;;;2.88;1.95;;;14.50;99.90;;;;;;4942646;28;20520;-80
2022/09/30 11:21:26;;;;;;;5.47;2.13;;;14.50;99.90;;;;;;4929776;28;20046;-81
2022/09/30 11:24:28;;;;;;;4.85;2.10;;;14.50;99.90;;;;;;4944206;28;20524;-82
2022/09/30 11:27:19;;;;;;;2.95;2.40;;;14.50;99.90;;;;;;4963368;28;20129;-80
2022/09/30 11:30:10;;;;;;;6.05;2.47;;;14.50;99.90;;;;;;4946034;28;20529;-82
2022/09/30 11:32:57;;;;;;;5.72;1.90;;;14.90;99.90;;;;;;4947797;28;20055;-80
2022/09/30 11:35:45;;;;;;;2.28;1.60;;;15.00;99.90;;;;;;4935106;28;20074;-81
2022/09/30 11:38:20;;;;;;;2.42;1.73;;;15.20;99.90;;;;;;4961819;28;20058;-82
2022/09/30 11:40:57;;;;;;;2.63;1.42;;;15.40;99.90;;;;;;4950111;28;20046;-84
2022/09/30 11:43:51;;;;;;;4.45;1.40;;;15.30;99.90;;;;;;4951061;28;20051;-80
2022/09/30 11:46:47;;;;;;;2.10;1.35;;;15.30;99.90;;;;;;4965213;28;20097;-82
2022/09/30 11:49:49;;;;;;;2.10;1.42;;;15.50;99.90;;;;;;4949128;28;20552;-81
2022/09/30 11:52:24;;;;;;;3.38;1.65;;;15.60;99.90;;;;;;4965241;28;20071;-80
2022/09/30 11:55:17;;;;;;;;;;;15.70;99.90;;;;;;4969590;28;20049;-84
2022/09/30 11:57:43;;;;;;;2.53;1.80;;;15.80;99.90;;;;;;5040163;28;19917;-79
2022/09/30 12:00:17;;;;;;;2.00;1.70;;;16.00;99.90;;;;;;5046406;28;20060;-81
2022/09/30 12:02:58;;;;;;;2.42;1.67;;;16.10;99.90;;;;;;5046219;28;20060;-79
2022/09/30 12:05:29;;;;;;;4.30;1.10;;;16.20;99.90;;;;;;5046678;28;20095;-80
2022/09/30 12:08:12;;;;;;;2.45;1.17;;;16.30;99.90;;;;;;5032188;28;20480;-81
2022/09/30 12:10:44;;;;;;;1.85;1.30;;;16.20;99.90;;;;;;5045406;28;20032;-80
2022/09/30 12:13:32;;;;;;;3.80;1.48;;;16.40;99.90;;;;;;5028597;28;20048;-80
2022/09/30 12:16:00;;;;;;;4.35;2.15;;;16.40;99.90;;;;;;5040564;28;20124;-83
2022/09/30 12:18:47;;;;;;;2.30;1.98;;;16.30;99.90;;;;;;5047848;28;20040;-81
2022/09/30 12:21:38;;;;;;;3.15;1.40;;;16.40;99.90;;;;;;5047916;28;20067;-80
2022/09/30 12:24:22;;;;;;;2.63;1.70;;;16.30;99.90;;;;;;5067942;28;20139;-82
2022/09/30 12:26:48;;;;;;;1.83;1.27;;;16.40;99.90;;;;;;5047255;28;20048;-80
2022/09/30 12:32:43;;;;;;;4.45;1.13;;;16.70;99.90;;;;;;5068453;28;20395;-79
2022/09/30 12:35:42;;;;;;;1.90;1.23;;;16.80;99.90;;;;;;5057234;28;20536;-80
2022/09/30 12:38:49;;;;;;;4.22;1.20;;;16.70;99.90;;;;;;5050298;28;20113;-79
2022/09/30 12:41:24;;;;;;;2.05;1.30;;;16.40;99.90;;;;;;4969598;28;20054;-82
2022/09/30 12:44:23;;;;;;;;;;;16.40;99.90;;;;;;4964571;28;20042;-80
2022/09/30 12:47:16;;;;;;;1.30;0.95;;;16.30;99.90;;;;;;4969841;28;20467;-80
2022/09/30 12:49:42;;;;;;;3.25;1.40;;;16.60;99.90;;;;;;4973063;28;20088;-82
2022/09/30 12:52:14;;;;;;;4.70;1.33;;;16.70;99.90;;;;;;4972961;28;22348;-81
2022/09/30 12:54:51;;;;;;;4.55;1.20;;;17.00;99.90;;;;;;4957647;28;20050;-79
2022/09/30 12:57:25;;;;;;;2.05;0.98;;;16.70;99.90;;;;;;4969403;28;20398;-81
2022/09/30 12:59:55;;;;;;;1.88;1.30;;;16.40;99.90;;;;;;4970296;28;20077;-79
2022/09/30 13:02:34;;;;;;;2.03;1.20;;;16.30;99.90;;;;;;4969134;28;20112;-80
2022/09/30 13:05:30;;;;;;;4.80;1.35;;;16.20;99.90;;;;;;4954638;28;20109;-79
2022/09/30 13:08:05;;;;;;;1.73;1.10;;;16.60;99.90;;;;;;4988420;28;20042;-81
2022/09/30 13:10:33;;;;;;;2.80;1.27;;;16.90;99.90;;;;;;4993162;28;20111;-78
2022/09/30 13:13:23;;;;;;;4.72;1.40;;;17.20;99.90;;;;;;5058635;28;20178;-79
2022/09/30 13:16:08;;;;;;;2.40;1.38;;;17.20;99.90;;;;;;5061659;28;20051;-79
2022/09/30 13:18:54;;;;;;;4.03;1.30;;;17.00;99.90;;;;;;5066854;28;20052;-81
2022/09/30 13:21:21;;;;;;;3.05;1.45;;;17.30;99.90;;;;;;4975778;28;20057;-81
2022/09/30 13:23:56;;;;;;;4.28;1.33;;;17.20;99.90;;;;;;4998062;28;20057;-79
2022/09/30 13:26:30;;;;;;;1.73;1.42;;;17.30;99.90;;;;;;4995479;28;20057;-81
2022/09/30 13:28:59;;;;;;;2.38;1.38;;;17.20;99.90;;;;;;4992021;28;20516;-78
2022/09/30 13:31:27;;;;;;;1.73;1.60;;;17.20;99.90;;;;;;4989229;28;20057;-77